sensor_id;sensor_type;location;lat;lon;timestamp;pressure;altitude;pressure_sealevel;temperature;humidity
7888;BME280;3989;48.810;9.208;2024-03-22T06:56:21;98979.91;;;7.50;100.00
7888;BME280;3989;48.810;9.208;2024-03-22T08:12:01;99157.00;;;12.16;100.00
7888;BME280;3989;48.810;9.208;2024-03-22T08:14:42;99182.88;;;12.60;100.00
7888;BME280;3989;48.810;9.208;2024-03-22T08:24:56;99169.59;;;13.55;100.00
7888;BME280;3989;48.810;9.208;2024-03-22T08:35:19;99199.22;;;14.67;100.00
7888;BME280;3989;48.810;9.208;2024-03-22T08:37:47;99206.91;;;14.98;100.00
7888;BME280;3989;48.810;9.208;2024-03-22T08:40:19;99205.19;;;15.18;100.00
7888;BME280;3989;48.810;9.208;2024-03-22T08:42:59;99046.94;;;14.34;100.00
7888;BME280;3989;48.810;9.208;2024-03-22T08:45:26;99111.56;;;14.94;100.00
7888;BME280;3989;48.810;9.208;2024-03-22T08:47:52;99147.91;;;15.18;100.00
7888;BME280;3989;48.810;9.208;2024-03-22T08:50:22;99136.06;;;15.12;100.00
7888;BME280;3989;48.810;9.208;2024-03-22T08:52:48;99121.41;;;14.81;100.00
7888;BME280;3989;48.810;9.208;2024-03-22T08:55:15;99128.53;;;14.95;100.00
7888;BME280;3989;48.810;9.208;2024-03-22T08:57:41;99089.78;;;14.76;100.00
7888;BME280;3989;48.810;9.208;2024-03-22T09:00:09;99182.97;;;15.38;100.00
7888;BME280;3989;48.810;9.208;2024-03-22T09:02:36;99175.72;;;15.45;100.00
7888;BME280;3989;48.810;9.208;2024-03-22T09:05:04;99173.75;;;15.53;100.00
7888;BME280;3989;48.810;9.208;2024-03-22T09:07:32;99183.75;;;15.72;100.00
7888;BME280;3989;48.810;9.208;2024-03-22T09:09:59;99183.97;;;15.84;100.00
7888;BME280;3989;48.810;9.208;2024-03-22T09:12:25;99052.16;;;15.23;100.00
7888;BME280;3989;48.810;9.208;2024-03-22T09:14:52;98989.16;;;14.79;100.00
7888;BME280;3989;48.810;9.208;2024-03-22T09:17:18;99143.59;;;15.84;100.00
7888;BME280;3989;48.810;9.208;2024-03-22T09:19:45;99115.03;;;15.70;100.00
7888;BME280;3989;48.810;9.208;2024-03-22T09:22:11;99165.81;;;16.12;100.00
7888;BME280;3989;48.810;9.208;2024-03-22T09:24:42;99078.81;;;15.79;100.00
7888;BME280;3989;48.810;9.208;2024-03-22T09:27:08;99095.81;;;16.06;100.00
7888;BME280;3989;48.810;9.208;2024-03-22T09:29:36;99026.63;;;15.73;100.00
7888;BME280;3989;48.810;9.208;2024-03-22T09:32:02;99154.47;;;16.83;99.78
7888;BME280;3989;48.810;9.208;2024-03-22T09:34:29;99133.72;;;16.96;97.17
7888;BME280;3989;48.810;9.208;2024-03-22T09:36:55;98962.03;;;16.06;87.19
7888;BME280;3989;48.810;9.208;2024-03-22T09:39:26;98962.00;;;16.26;86.10
7888;BME280;3989;48.810;9.208;2024-03-22T09:42:05;99046.03;;;16.80;74.94
7888;BME280;3989;48.810;9.208;2024-03-22T09:45:30;99137.41;;;17.66;70.74
7888;BME280;3989;48.810;9.208;2024-03-22T09:47:59;98965.44;;;17.10;67.17
7888;BME280;3989;48.810;9.208;2024-03-22T09:50:31;98880.88;;;16.98;62.63
7888;BME280;3989;48.810;9.208;2024-03-22T09:53:04;99088.91;;;18.40;59.83
7888;BME280;3989;48.810;9.208;2024-03-22T09:55:32;99115.84;;;18.96;57.23
7888;BME280;3989;48.810;9.208;2024-03-22T09:58:20;98990.78;;;18.21;56.36
7888;BME280;3989;48.810;9.208;2024-03-22T10:01:00;99128.78;;;19.49;56.11
7888;BME280;3989;48.810;9.208;2024-03-22T10:03:43;98956.53;;;18.76;50.42
7888;BME280;3989;48.810;9.208;2024-03-22T10:06:17;98981.50;;;19.38;49.07
7888;BME280;3989;48.810;9.208;2024-03-22T10:08:58;98964.56;;;18.83;46.45
7888;BME280;3989;48.810;9.208;2024-03-22T10:11:28;99009.53;;;18.59;47.18
7888;BME280;3989;48.810;9.208;2024-03-22T10:14:02;98867.00;;;17.26;47.26
7888;BME280;3989;48.810;9.208;2024-03-22T10:16:34;99071.44;;;18.18;49.06
7888;BME280;3989;48.810;9.208;2024-03-22T10:19:00;99048.28;;;18.04;48.31
7888;BME280;3989;48.810;9.208;2024-03-22T10:21:29;99004.97;;;17.92;46.61
7888;BME280;3989;48.810;9.208;2024-03-22T10:23:56;98999.31;;;17.69;48.14
7888;BME280;3989;48.810;9.208;2024-03-22T10:26:24;99059.56;;;17.94;48.00
7888;BME280;3989;48.810;9.208;2024-03-22T10:29:28;99010.38;;;17.92;47.84
7888;BME280;3989;48.810;9.208;2024-03-22T10:31:50;99056.59;;;18.27;48.06
7888;BME280;3989;48.810;9.208;2024-03-22T10:59:07;99037.91;;;18.50;47.93
7888;BME280;3989;48.810;9.208;2024-03-22T11:05:48;98794.66;;;17.41;46.96
7888;BME280;3989;48.810;9.208;2024-03-22T11:19:59;98987.78;;;18.72;47.99
7888;BME280;3989;48.810;9.208;2024-03-22T11:22:29;98834.94;;;17.86;47.97
7888;BME280;3989;48.810;9.208;2024-03-22T11:24:56;98919.41;;;18.29;47.90
7888;BME280;3989;48.810;9.208;2024-03-22T11:27:25;98846.91;;;18.26;47.84
7888;BME280;3989;48.810;9.208;2024-03-22T11:36:15;98967.50;;;19.71;46.13
7888;BME280;3989;48.810;9.208;2024-03-22T11:38:58;98776.53;;;18.69;45.96
7888;BME280;3989;48.810;9.208;2024-03-22T11:41:32;98971.81;;;19.60;45.79
7888;BME280;3989;48.810;9.208;2024-03-22T11:44:24;98724.44;;;18.62;44.86
7888;BME280;3989;48.810;9.208;2024-03-22T11:46:53;98960.91;;;20.60;43.59
7888;BME280;3989;48.810;9.208;2024-03-22T11:49:20;98673.59;;;19.05;43.18
7888;BME280;3989;48.810;9.208;2024-03-22T11:55:32;98777.03;;;20.57;42.69
7888;BME280;3989;48.810;9.208;2024-03-22T12:01:41;98767.53;;;20.42;41.18
7888;BME280;3989;48.810;9.208;2024-03-22T12:04:27;98833.81;;;20.00;42.54
7888;BME280;3989;48.810;9.208;2024-03-22T12:07:41;98811.09;;;21.09;41.90
7888;BME280;3989;48.810;9.208;2024-03-22T13:03:34;98806.25;;;22.00;39.49
7888;BME280;3989;48.810;9.208;2024-03-22T13:17:32;98765.66;;;22.15;39.34
7888;BME280;3989;48.810;9.208;2024-03-22T13:59:45;98729.41;;;21.27;42.53
7888;BME280;3989;48.810;9.208;2024-03-22T14:02:47;98712.31;;;20.93;43.14
7888;BME280;3989;48.810;9.208;2024-03-22T14:05:17;98629.72;;;20.51;43.09
7888;BME280;3989;48.810;9.208;2024-03-22T14:07:43;98537.25;;;19.86;43.48
7888;BME280;3989;48.810;9.208;2024-03-22T14:10:10;98720.84;;;20.69;43.56
7888;BME280;3989;48.810;9.208;2024-03-22T14:12:41;98712.91;;;20.34;43.89
7888;BME280;3989;48.810;9.208;2024-03-22T14:15:27;98565.78;;;19.09;44.40
7888;BME280;3989;48.810;9.208;2024-03-22T14:17:57;98542.69;;;19.18;44.75
7888;BME280;3989;48.810;9.208;2024-03-22T14:20:24;98517.97;;;18.86;45.15
7888;BME280;3989;48.810;9.208;2024-03-22T14:22:50;98608.44;;;19.18;45.80
7888;BME280;3989;48.810;9.208;2024-03-22T14:25:17;98676.97;;;19.59;45.63
7888;BME280;3989;48.810;9.208;2024-03-22T14:27:56;98648.88;;;19.36;46.34
7888;BME280;3989;48.810;9.208;2024-03-22T14:30:25;98509.50;;;18.24;45.38
7888;BME280;3989;48.810;9.208;2024-03-22T14:32:51;98441.84;;;17.73;43.73
7888;BME280;3989;48.810;9.208;2024-03-22T14:35:18;98531.69;;;18.26;43.30
7888;BME280;3989;48.810;9.208;2024-03-22T14:37:44;98642.56;;;18.84;43.83
7888;BME280;3989;48.810;9.208;2024-03-22T14:40:11;98650.53;;;19.14;42.75
7888;BME280;3989;48.810;9.208;2024-03-22T14:45:50;98511.16;;;18.37;41.27
7888;BME280;3989;48.810;9.208;2024-03-22T14:48:25;98648.28;;;19.34;41.11
7888;BME280;3989;48.810;9.208;2024-03-22T14:50:52;98593.63;;;19.21;41.38
7888;BME280;3989;48.810;9.208;2024-03-22T14:53:19;98512.56;;;18.74;40.73
7888;BME280;3989;48.810;9.208;2024-03-22T14:55:52;98422.47;;;18.22;39.88
7888;BME280;3989;48.810;9.208;2024-03-22T15:01:34;98650.44;;;19.72;40.09
7888;BME280;3989;48.810;9.208;2024-03-22T15:20:08;98488.47;;;17.92;41.45
7888;BME280;3989;48.810;9.208;2024-03-22T15:23:08;98367.47;;;17.12;41.51
7888;BME280;3989;48.810;9.208;2024-03-22T15:25:34;98568.06;;;18.54;41.02
7888;BME280;3989;48.810;9.208;2024-03-22T15:33:40;98601.97;;;18.38;42.91
7888;BME280;3989;48.810;9.208;2024-03-22T15:36:32;98349.69;;;16.45;43.81
7888;BME280;3989;48.810;9.208;2024-03-22T15:41:52;98496.84;;;17.60;44.55
7888;BME280;3989;48.810;9.208;2024-03-22T15:49:23;98329.06;;;16.57;45.32
7888;BME280;3989;48.810;9.208;2024-03-22T15:51:51;98587.78;;;18.01;45.50
7888;BME280;3989;48.810;9.208;2024-03-22T15:54:41;98486.31;;;17.41;45.79
7888;BME280;3989;48.810;9.208;2024-03-22T15:57:07;98480.56;;;17.37;46.01
7888;BME280;3989;48.810;9.208;2024-03-22T15:59:34;98571.97;;;17.75;46.55
7888;BME280;3989;48.810;9.208;2024-03-22T16:02:01;98423.78;;;16.72;46.43
7888;BME280;3989;48.810;9.208;2024-03-22T16:04:29;98508.44;;;17.31;46.44
7888;BME280;3989;48.810;9.208;2024-03-22T16:06:58;98567.53;;;17.51;47.04
7888;BME280;3989;48.810;9.208;2024-03-22T16:09:24;98581.69;;;17.46;47.81
7888;BME280;3989;48.810;9.208;2024-03-22T16:11:51;98571.25;;;17.50;47.68
7888;BME280;3989;48.810;9.208;2024-03-22T16:14:17;98498.13;;;17.10;48.15
7888;BME280;3989;48.810;9.208;2024-03-22T16:16:48;98567.91;;;17.54;48.17
7888;BME280;3989;48.810;9.208;2024-03-22T16:19:14;98478.63;;;16.96;48.18
7888;BME280;3989;48.810;9.208;2024-03-22T16:21:41;98531.31;;;17.28;48.08
7888;BME280;3989;48.810;9.208;2024-03-22T16:24:09;98402.97;;;16.61;47.68
7888;BME280;3989;48.810;9.208;2024-03-22T16:26:36;98573.31;;;18.95;46.00
7888;BME280;3989;48.810;9.208;2024-03-22T16:29:02;98452.50;;;19.12;43.95
7888;BME280;3989;48.810;9.208;2024-03-22T16:31:39;98432.59;;;19.47;42.25
7888;BME280;3989;48.810;9.208;2024-03-22T16:34:08;98459.84;;;19.57;42.87
7888;BME280;3989;48.810;9.208;2024-03-22T16:36:35;98545.97;;;19.20;44.12
7888;BME280;3989;48.810;9.208;2024-03-22T16:39:00;98396.44;;;18.05;44.94
7888;BME280;3989;48.810;9.208;2024-03-22T16:41:30;98560.75;;;18.77;45.14
7888;BME280;3989;48.810;9.208;2024-03-22T16:43:56;98378.28;;;17.36;46.01
7888;BME280;3989;48.810;9.208;2024-03-22T16:46:23;98550.97;;;18.18;46.75
7888;BME280;3989;48.810;9.208;2024-03-22T17:00:24;98373.66;;;15.99;51.95
7888;BME280;3989;48.810;9.208;2024-03-22T17:02:51;98390.50;;;15.88;52.85
7888;BME280;3989;48.810;9.208;2024-03-22T17:05:17;98449.31;;;16.09;54.02
7888;BME280;3989;48.810;9.208;2024-03-22T17:07:45;98407.13;;;15.60;56.31
7888;BME280;3989;48.810;9.208;2024-03-22T17:15:26;98464.69;;;15.52;61.87
7888;BME280;3989;48.810;9.208;2024-03-22T19:11:46;98309.84;;;10.35;100.00
7888;BME280;3989;48.810;9.208;2024-03-22T19:14:15;98470.06;;;11.20;100.00
7888;BME280;3989;48.810;9.208;2024-03-22T19:16:47;98397.81;;;10.64;100.00
7888;BME280;3989;48.810;9.208;2024-03-22T19:19:15;98373.38;;;10.46;100.00
7888;BME280;3989;48.810;9.208;2024-03-22T19:21:44;98399.19;;;10.60;100.00
7888;BME280;3989;48.810;9.208;2024-03-22T19:24:11;98297.97;;;9.87;100.00
7888;BME280;3989;48.810;9.208;2024-03-22T19:29:14;98423.41;;;10.59;100.00
7888;BME280;3989;48.810;9.208;2024-03-22T19:32:04;98278.63;;;9.49;100.00
7888;BME280;3989;48.810;9.208;2024-03-22T19:34:38;98276.88;;;9.56;100.00
7888;BME280;3989;48.810;9.208;2024-03-22T19:37:06;98269.63;;;9.35;100.00
7888;BME280;3989;48.810;9.208;2024-03-22T19:39:43;98256.94;;;9.37;100.00
7888;BME280;3989;48.810;9.208;2024-03-22T19:42:38;98447.13;;;10.53;100.00
7888;BME280;3989;48.810;9.208;2024-03-22T19:45:09;98353.13;;;9.72;100.00
7888;BME280;3989;48.810;9.208;2024-03-22T19:47:43;98351.66;;;9.69;100.00
7888;BME280;3989;48.810;9.208;2024-03-22T19:50:19;98276.50;;;9.30;100.00
7888;BME280;3989;48.810;9.208;2024-03-22T19:52:50;98326.66;;;9.56;100.00
7888;BME280;3989;48.810;9.208;2024-03-22T19:55:23;98380.03;;;9.77;100.00
7888;BME280;3989;48.810;9.208;2024-03-22T19:57:51;98264.91;;;9.08;100.00
7888;BME280;3989;48.810;9.208;2024-03-22T20:00:24;98373.63;;;9.71;100.00
7888;BME280;3989;48.810;9.208;2024-03-22T20:05:25;98257.22;;;8.76;100.00
7888;BME280;3989;48.810;9.208;2024-03-22T20:08:09;98272.38;;;8.75;100.00
7888;BME280;3989;48.810;9.208;2024-03-22T20:30:50;98247.81;;;9.03;100.00
7888;BME280;3989;48.810;9.208;2024-03-22T20:33:30;98248.03;;;9.16;100.00
7888;BME280;3989;48.810;9.208;2024-03-22T20:36:07;98288.44;;;9.34;100.00
